Aérodrome :
LOGIN :

S'inscrire | Disclaimer

   EN    FR    IT 

 










Légende :    VFR   VFR Marginal   IFR   IFR Intensif   IFR Très Intensif
Visi : 
Plafond : 
>= 8 km
>= 3000ft
5 à 8 km
1000 à 3000 ft
1500m à 5 km
500 à 1000 ft
800 à 1500m
200 à 500 ft
< 800m
< 200 ft
Symboles :   Orages  Brouillard  Fortes neiges  Fortes précipitations  Vent > 20 kt
SIGMETs :   Divers  Orages  Givrage  Turbulence  Onde Orograph.  Cendres Volcan.







- Altitude de l'aérodrome : 1411 ft
- Code IATA : GVA


LSGG - Genève Cointrin

DERNIER METAR :
  • 222350Z AUTO 23004KT 190V260 9999 -RA FEW030 SCT039 BKN044 07/06 Q1024 RERA NOSIG

METARs EXPIRÉS :
  • 222320Z AUTO 22005KT 190V290 9999 -RA SCT035 BKN041 07/06 Q1024 REDZ NOSIG
  • 222250Z AUTO VRB03KT 9999 -DZ FEW044 07/06 Q1024 REDZ NOSIG
  • 222220Z AUTO 16005KT 9999 FEW029 07/07 Q1024 NOSIG
  • 222150Z AUTO VRB01KT 9999 FEW036 BKN040 07/07 Q1024 RERA NOSIG
  • 222120Z AUTO VRB03KT 9999 FEW037 07/06 Q1024 NOSIG

TAF TAF LSGG
Valide du 23 à 00h jusqu'au 24 à 06h UTC


222325Z 2300/2406 25004KT 9999 FEW030 BKN050 TX13/2315Z TN06/2306Z TN06/2406Z
PROB30
TEMPO 2300/2310 4900 SHRA
ATIS : +41 22 417 40 81
Pas de NOTAMs connus pour ce terrain.
1 SIGMET publié pour la FIR Switzerland (LSAS) :
 
Turbulence forte
LSAS SIGMET 2 VALID 222348/230300 LSZH
LSAS SWITZERLAND UIR SEV TURB FCST W OF LINE N4544 E00910 - N4749 E00819 FL220/330 MOV E 10KT NC=



MET'MAP, la Météo Aéronautique d'un coup d'oeil ! - Copyright ORBIFLY Décembre 2007 - Disclaimer

ORBIFLY MET'MAP TEAM :

Programmation & Développement : Alexandra Zaïnal
Conception & Développement : Baudouin d'Aumeries
Co-Programmation & Développement : Marc-Olivier Méhu
Soutien technique & logistique : Manuel Goepfert

Contact : metmap@orbifly.com




SOURCES & CREDITS :

   NOAA